Time;durP1;ratioP1;P1;durP2;ratioP2;P2;SDS_P1;SDS_P2;PMS_P1;PMS_P2;Temp;Humidity;BMP_temperature;BMP_pressure;BME280_temperature;BME280_humidity;BME280_pressure;Samples;Min_cycle;Max_cycle;Signal;HPM_P1;HPM_P2
2022/11/07 00:01:18;;;;;;;3.38;1.05;;;;;;;;;;6168669;23;20012;-87
2022/11/07 00:03:44;;;;;;;6.20;1.42;;;;;;;;;;6167271;23;20403;-86
2022/11/07 00:06:10;;;;;;;5.82;1.20;;;;;;;;;;6167660;23;20484;-87
2022/11/07 00:08:36;;;;;;;4.05;0.80;;;;;;;;;;6168590;23;20079;-86
2022/11/07 00:11:03;;;;;;;4.72;1.00;;;;;;;;;;6169635;23;20096;-87
2022/11/07 00:13:30;;;;;;;6.68;1.20;;;;;;;;;;6171122;23;20138;-86
2022/11/07 00:16:00;;;;;;;4.25;1.00;;;;;;;;;;6168426;23;20092;-87
2022/11/07 00:18:26;;;;;;;8.48;1.55;;;;;;;;;;6169393;23;20009;-87
2022/11/07 00:20:52;;;;;;;0.80;0.70;;;;;;;;;;6169911;23;20001;-86
2022/11/07 00:23:18;;;;;;;6.90;1.10;;;;;;;;;;6172568;23;20005;-87
2022/11/07 00:25:45;;;;;;;4.18;0.90;;;;;;;;;;6169926;23;20083;-87
2022/11/07 00:28:11;;;;;;;2.92;0.93;;;;;;;;;;6169216;23;20495;-87
2022/11/07 00:30:37;;;;;;;3.08;1.15;;;;;;;;;;6168801;23;20104;-86
2022/11/07 00:33:03;;;;;;;3.33;0.93;;;;;;;;;;6169749;23;20096;-86
2022/11/07 00:35:30;;;;;;;3.22;0.90;;;;;;;;;;6169159;23;20466;-87
2022/11/07 00:37:56;;;;;;;2.90;0.85;;;;;;;;;;6170221;23;20448;-87
2022/11/07 00:40:22;;;;;;;4.38;1.05;;;;;;;;;;6169714;23;20009;-86
2022/11/07 00:42:48;;;;;;;3.67;1.95;;;;;;;;;;6170219;23;20015;-86
2022/11/07 00:45:15;;;;;;;4.63;1.25;;;;;;;;;;6168644;23;20443;-86
2022/11/07 00:47:41;;;;;;;6.95;1.00;;;;;;;;;;6169787;23;20451;-88
2022/11/07 00:50:07;;;;;;;3.50;0.70;;;;;;;;;;6169583;23;20451;-87
2022/11/07 00:52:33;;;;;;;4.35;1.42;;;;;;;;;;6169550;23;20037;-87
2022/11/07 00:55:00;;;;;;;3.30;0.80;;;;;;;;;;6169883;23;20008;-86
2022/11/07 00:57:26;;;;;;;8.07;2.25;;;;;;;;;;6170461;23;20044;-87
2022/11/07 00:59:52;;;;;;;2.75;1.15;;;;;;;;;;6168384;23;20087;-87
2022/11/07 01:02:18;;;;;;;3.92;0.93;;;;;;;;;;6169654;23;20036;-87
2022/11/07 01:07:29;;;;;;;3.08;1.08;;;;;;;;;;6172564;23;20493;-87
2022/11/07 01:09:55;;;;;;;6.97;1.20;;;;;;;;;;6168738;23;20172;-86
2022/11/07 01:12:24;;;;;;;4.03;1.20;;;;;;;;;;6169939;23;20021;-87
2022/11/07 01:14:51;;;;;;;2.58;1.10;;;;;;;;;;6170334;23;20036;-87
2022/11/07 01:17:17;;;;;;;2.95;1.13;;;;;;;;;;6169316;23;20335;-87
2022/11/07 01:19:43;;;;;;;4.13;0.95;;;;;;;;;;6169089;23;20333;-87
2022/11/07 01:22:09;;;;;;;4.68;1.20;;;;;;;;;;6170092;23;20005;-87
2022/11/07 01:24:35;;;;;;;5.93;1.00;;;;;;;;;;6170157;23;20049;-87
2022/11/07 01:27:02;;;;;;;3.85;0.82;;;;;;;;;;6170069;23;20083;-87
2022/11/07 01:29:28;;;;;;;4.35;0.57;;;;;;;;;;6170209;23;20450;-87
2022/11/07 01:31:54;;;;;;;4.70;1.02;;;;;;;;;;6169479;23;20001;-87
2022/11/07 01:34:20;;;;;;;6.30;1.10;;;;;;;;;;6171854;23;20471;-86
2022/11/07 01:36:46;;;;;;;6.22;1.45;;;;;;;;;;6172006;23;20017;-87
2022/11/07 01:39:13;;;;;;;5.15;1.02;;;;;;;;;;6172291;23;20092;-86
2022/11/07 01:41:39;;;;;;;8.23;1.20;;;;;;;;;;6170160;23;20005;-87
2022/11/07 01:44:08;;;;;;;2.47;0.75;;;;;;;;;;6172287;23;20012;-86
2022/11/07 01:46:39;;;;;;;2.75;0.80;;;;;;;;;;6171438;23;20032;-86
2022/11/07 01:49:17;;;;;;;2.90;0.90;;;;;;;;;;6173562;23;20013;-87
2022/11/07 01:51:48;;;;;;;2.72;0.80;;;;;;;;;;6173064;23;20012;-86
2022/11/07 01:54:16;;;;;;;1.83;0.70;;;;;;;;;;6174100;23;20343;-86
2022/11/07 01:56:43;;;;;;;4.78;0.90;;;;;;;;;;6174760;23;20016;-87
2022/11/07 01:59:11;;;;;;;6.18;0.90;;;;;;;;;;6174238;23;20240;-86
2022/11/07 02:01:37;;;;;;;2.60;0.70;;;;;;;;;;6174603;23;20015;-86
2022/11/07 02:04:04;;;;;;;10.98;1.35;;;;;;;;;;6172354;23;20315;-86
2022/11/07 02:06:43;;;;;;;7.18;1.23;;;;;;;;;;6174194;23;20036;-86
2022/11/07 02:09:09;;;;;;;4.43;1.05;;;;;;;;;;6174297;23;20020;-87
2022/11/07 02:11:35;;;;;;;8.80;1.45;;;;;;;;;;6171130;23;20013;-86
2022/11/07 02:14:02;;;;;;;5.47;1.65;;;;;;;;;;6174360;23;20059;-86
2022/11/07 02:16:28;;;;;;;2.53;1.02;;;;;;;;;;6174943;23;20016;-87
2022/11/07 02:18:55;;;;;;;5.18;1.00;;;;;;;;;;6173669;23;20001;-86
2022/11/07 02:21:33;;;;;;;6.60;0.70;;;;;;;;;;6174372;23;20016;-85
2022/11/07 02:24:08;;;;;;;4.30;0.93;;;;;;;;;;6171601;23;20032;-85
2022/11/07 02:26:42;;;;;;;2.17;0.65;;;;;;;;;;6167310;23;20009;-85
2022/11/07 02:29:09;;;;;;;4.72;0.77;;;;;;;;;;6168587;23;20040;-87
2022/11/07 02:31:36;;;;;;;3.53;1.05;;;;;;;;;;6171226;23;20077;-85
2022/11/07 02:34:02;;;;;;;4.47;1.50;;;;;;;;;;6169914;23;20443;-84
2022/11/07 02:36:28;;;;;;;3.85;1.48;;;;;;;;;;6170499;23;20013;-85
2022/11/07 02:38:57;;;;;;;3.22;1.30;;;;;;;;;;6168835;23;20105;-86
2022/11/07 02:41:25;;;;;;;7.50;1.08;;;;;;;;;;6170064;23;20095;-86
2022/11/07 02:43:53;;;;;;;2.78;1.00;;;;;;;;;;6170384;23;20321;-86
2022/11/07 02:46:20;;;;;;;4.35;1.40;;;;;;;;;;6168112;23;20044;-86
2022/11/07 02:48:50;;;;;;;3.05;0.90;;;;;;;;;;6169177;23;20005;-86
2022/11/07 02:51:17;;;;;;;3.47;0.88;;;;;;;;;;6169507;23;20012;-86
2022/11/07 02:53:43;;;;;;;8.45;2.53;;;;;;;;;;6169681;23;20339;-85
2022/11/07 02:56:13;;;;;;;2.67;0.82;;;;;;;;;;6169728;23;20044;-85
2022/11/07 02:58:39;;;;;;;5.15;1.20;;;;;;;;;;6168503;23;20757;-86
2022/11/07 03:01:06;;;;;;;2.90;0.70;;;;;;;;;;6170045;23;20084;-85
2022/11/07 03:03:38;;;;;;;5.63;0.73;;;;;;;;;;6168965;23;20039;-86
2022/11/07 03:06:05;;;;;;;6.35;1.40;;;;;;;;;;6168484;23;20013;-86
2022/11/07 03:08:32;;;;;;;3.28;0.75;;;;;;;;;;6168892;23;20040;-86
2022/11/07 03:10:58;;;;;;;2.08;0.70;;;;;;;;;;6169739;23;20032;-86
2022/11/07 03:13:24;;;;;;;5.60;0.82;;;;;;;;;;6169429;23;20102;-86
2022/11/07 03:15:51;;;;;;;3.25;0.63;;;;;;;;;;6171480;23;20399;-87
2022/11/07 03:18:17;;;;;;;2.95;0.80;;;;;;;;;;6171316;23;20041;-86
2022/11/07 03:20:43;;;;;;;3.00;1.02;;;;;;;;;;6167498;23;20013;-86
2022/11/07 03:23:10;;;;;;;2.55;0.52;;;;;;;;;;6169226;23;20009;-86
2022/11/07 03:25:36;;;;;;;4.53;0.90;;;;;;;;;;6169536;23;20310;-85
2022/11/07 03:28:03;;;;;;;2.65;0.70;;;;;;;;;;6168019;23;20044;-85
2022/11/07 03:30:29;;;;;;;2.67;0.75;;;;;;;;;;6169660;23;20070;-85
2022/11/07 03:32:56;;;;;;;2.40;1.00;;;;;;;;;;6168132;23;20032;-85
2022/11/07 03:35:22;;;;;;;4.70;0.80;;;;;;;;;;6170055;23;20009;-85
2022/11/07 03:37:49;;;;;;;2.55;0.70;;;;;;;;;;6169146;23;20522;-86
2022/11/07 03:40:15;;;;;;;4.05;1.15;;;;;;;;;;6169398;23;20444;-85
2022/11/07 03:42:43;;;;;;;5.10;1.10;;;;;;;;;;6168916;23;20060;-86
2022/11/07 03:45:10;;;;;;;4.50;0.77;;;;;;;;;;6169400;23;20009;-85
2022/11/07 03:47:37;;;;;;;2.10;0.60;;;;;;;;;;6167858;23;20412;-86
2022/11/07 03:50:04;;;;;;;2.40;0.80;;;;;;;;;;6169292;23;20032;-86
2022/11/07 03:52:33;;;;;;;7.20;1.05;;;;;;;;;;6171186;23;20001;-85
2022/11/07 03:54:59;;;;;;;5.13;1.02;;;;;;;;;;6168502;23;20012;-85
2022/11/07 03:57:26;;;;;;;2.75;1.00;;;;;;;;;;6169013;23;20001;-85
2022/11/07 03:59:52;;;;;;;8.35;1.02;;;;;;;;;;6169754;23;20009;-86
2022/11/07 04:02:18;;;;;;;4.18;0.90;;;;;;;;;;6169508;23;20461;-85
2022/11/07 04:04:44;;;;;;;5.03;1.20;;;;;;;;;;6169730;23;20381;-86
2022/11/07 04:07:11;;;;;;;2.22;0.98;;;;;;;;;;6167866;23;20059;-86
2022/11/07 04:09:37;;;;;;;2.80;0.80;;;;;;;;;;6168066;23;20021;-85
2022/11/07 04:17:33;;;;;;;3.60;1.00;;;;;;;;;;6170847;23;20459;-86
2022/11/07 04:19:59;;;;;;;3.50;0.80;;;;;;;;;;6168589;23;20140;-86
2022/11/07 04:22:38;;;;;;;3.58;0.98;;;;;;;;;;6166753;23;20027;-85
2022/11/07 04:25:04;;;;;;;6.57;0.95;;;;;;;;;;6169757;23;20012;-85
2022/11/07 04:27:42;;;;;;;4.93;0.90;;;;;;;;;;6166743;23;20074;-85
2022/11/07 04:30:25;;;;;;;3.85;1.08;;;;;;;;;;6169270;23;20448;-86
2022/11/07 04:32:56;;;;;;;2.63;0.75;;;;;;;;;;6168166;23;20005;-85
2022/11/07 04:35:25;;;;;;;6.20;1.00;;;;;;;;;;6167401;23;20463;-85
2022/11/07 04:37:51;;;;;;;5.32;1.02;;;;;;;;;;6168522;23;20358;-86
2022/11/07 04:40:18;;;;;;;3.35;1.10;;;;;;;;;;6169001;23;20009;-85
2022/11/07 04:42:45;;;;;;;3.92;2.17;;;;;;;;;;6168332;23;20251;-85
2022/11/07 04:45:12;;;;;;;3.30;0.82;;;;;;;;;;6168630;23;20079;-86
2022/11/07 04:47:38;;;;;;;6.20;1.20;;;;;;;;;;6167868;23;20032;-84
2022/11/07 04:50:05;;;;;;;3.95;0.90;;;;;;;;;;6168029;23;20021;-85
2022/11/07 04:52:32;;;;;;;2.58;0.90;;;;;;;;;;6168067;23;20347;-86
2022/11/07 04:54:58;;;;;;;2.50;0.90;;;;;;;;;;6168716;23;20009;-85
2022/11/07 04:57:24;;;;;;;1.70;0.73;;;;;;;;;;6167893;23;20418;-85
2022/11/07 04:59:50;;;;;;;4.28;1.23;;;;;;;;;;6168056;23;20424;-86
2022/11/07 05:02:17;;;;;;;4.93;0.85;;;;;;;;;;6166853;23;20156;-85
2022/11/07 05:04:43;;;;;;;1.50;0.73;;;;;;;;;;6168483;23;20012;-84
2022/11/07 05:07:09;;;;;;;4.82;0.82;;;;;;;;;;6169006;23;20063;-85
2022/11/07 05:09:36;;;;;;;1.58;0.90;;;;;;;;;;6166543;23;20057;-85
2022/11/07 05:12:02;;;;;;;3.70;0.93;;;;;;;;;;6167988;23;20160;-85
2022/11/07 05:14:31;;;;;;;3.72;0.80;;;;;;;;;;6168149;23;20059;-86
2022/11/07 05:16:58;;;;;;;4.50;1.00;;;;;;;;;;6169235;23;20001;-86
2022/11/07 05:19:24;;;;;;;3.55;0.80;;;;;;;;;;6168323;23;19997;-85
2022/11/07 05:23:10;;;;;;;2.20;0.98;;;;;;;;;;6169601;23;20510;-85
2022/11/07 05:24:37;;;;;;;2.22;0.75;;;;;;;;;;6169271;23;20379;-85
2022/11/07 05:27:04;;;;;;;7.07;1.77;;;;;;;;;;6168171;23;20071;-85
2022/11/07 05:29:30;;;;;;;1.15;0.63;;;;;;;;;;6171771;23;20013;-85
2022/11/07 05:31:56;;;;;;;7.30;1.10;;;;;;;;;;6171234;23;20012;-85
2022/11/07 05:34:22;;;;;;;3.38;0.80;;;;;;;;;;6168991;23;20005;-86
2022/11/07 05:36:48;;;;;;;6.90;1.25;;;;;;;;;;6170532;23;20091;-86
2022/11/07 05:39:15;;;;;;;2.22;0.85;;;;;;;;;;6170864;23;20032;-85
2022/11/07 05:41:41;;;;;;;5.93;0.82;;;;;;;;;;6171688;23;20005;-85
2022/11/07 05:44:07;;;;;;;3.05;0.80;;;;;;;;;;6169111;23;20534;-85
2022/11/07 05:46:33;;;;;;;2.05;0.90;;;;;;;;;;6169515;23;20013;-85
2022/11/07 05:48:59;;;;;;;4.80;1.05;;;;;;;;;;6169734;23;20024;-85
2022/11/07 05:51:25;;;;;;;5.68;1.10;;;;;;;;;;6170281;23;20084;-85
2022/11/07 05:53:52;;;;;;;3.83;0.93;;;;;;;;;;6168353;23;20012;-85
2022/11/07 05:56:18;;;;;;;4.75;0.77;;;;;;;;;;6170388;23;20009;-85
2022/11/07 05:58:45;;;;;;;3.45;1.00;;;;;;;;;;6169343;23;20160;-85
2022/11/07 06:01:11;;;;;;;3.75;0.77;;;;;;;;;;6170672;23;20009;-85
2022/11/07 06:03:37;;;;;;;3.97;1.30;;;;;;;;;;6169379;23;20009;-83
2022/11/07 06:06:04;;;;;;;2.33;0.73;;;;;;;;;;6169805;23;20028;-84
2022/11/07 06:08:30;;;;;;;2.15;0.90;;;;;;;;;;6169219;23;20009;-85
2022/11/07 06:10:56;;;;;;;6.78;0.93;;;;;;;;;;6169211;23;20064;-85
2022/11/07 06:13:22;;;;;;;2.17;0.68;;;;;;;;;;6170187;23;20448;-85
2022/11/07 06:15:48;;;;;;;5.68;1.38;;;;;;;;;;6169771;23;20434;-85
2022/11/07 06:18:16;;;;;;;2.53;0.80;;;;;;;;;;6168477;23;20013;-85
2022/11/07 06:20:43;;;;;;;2.53;0.80;;;;;;;;;;6169516;23;20503;-84
2022/11/07 06:23:09;;;;;;;1.88;0.80;;;;;;;;;;6169832;23;20746;-84
2022/11/07 06:25:35;;;;;;;1.55;0.65;;;;;;;;;;6169952;23;20088;-84
2022/11/07 06:28:03;;;;;;;2.60;0.70;;;;;;;;;;6166351;23;20009;-85
2022/11/07 06:30:29;;;;;;;3.10;0.90;;;;;;;;;;6169073;23;20044;-83
2022/11/07 06:32:56;;;;;;;3.22;1.05;;;;;;;;;;6169884;23;20432;-84
2022/11/07 06:35:22;;;;;;;3.38;0.80;;;;;;;;;;6171942;23;20040;-84
2022/11/07 06:37:48;;;;;;;1.83;0.60;;;;;;;;;;6171059;23;20314;-84
2022/11/07 06:40:14;;;;;;;3.58;1.08;;;;;;;;;;6170337;23;20009;-84
2022/11/07 06:42:41;;;;;;;3.70;0.98;;;;;;;;;;6171458;23;20087;-86
2022/11/07 06:45:07;;;;;;;4.18;0.88;;;;;;;;;;6172151;23;20088;-86
2022/11/07 06:47:33;;;;;;;2.50;0.93;;;;;;;;;;6171717;23;20009;-86
2022/11/07 06:49:59;;;;;;;4.15;0.80;;;;;;;;;;6171643;23;20346;-86
2022/11/07 06:52:27;;;;;;;2.40;0.80;;;;;;;;;;6172273;23;20016;-86
2022/11/07 06:54:53;;;;;;;3.08;1.27;;;;;;;;;;6170491;23;20083;-86
2022/11/07 06:57:19;;;;;;;3.47;1.10;;;;;;;;;;6172196;23;20092;-85
2022/11/07 06:59:46;;;;;;;4.45;0.90;;;;;;;;;;6171796;23;20040;-85
2022/11/07 07:02:13;;;;;;;1.75;1.10;;;;;;;;;;6171016;23;20040;-85
2022/11/07 07:04:39;;;;;;;5.10;1.02;;;;;;;;;;6173400;23;20025;-85
2022/11/07 07:07:05;;;;;;;3.88;1.83;;;;;;;;;;6171941;23;20009;-86
2022/11/07 07:09:32;;;;;;;2.85;1.10;;;;;;;;;;6171581;23;20080;-85
2022/11/07 07:11:58;;;;;;;2.33;0.90;;;;;;;;;;6171838;23;20095;-86
2022/11/07 07:14:24;;;;;;;3.05;1.13;;;;;;;;;;6172376;23;20451;-85
2022/11/07 07:16:50;;;;;;;3.72;1.20;;;;;;;;;;6171466;23;20139;-85
2022/11/07 07:19:17;;;;;;;7.15;1.98;;;;;;;;;;6171391;23;20009;-85
2022/11/07 07:21:43;;;;;;;3.10;1.13;;;;;;;;;;6171559;23;19997;-85
2022/11/07 07:24:09;;;;;;;4.40;1.50;;;;;;;;;;6171983;23;20405;-86
2022/11/07 07:26:35;;;;;;;1.65;1.02;;;;;;;;;;6169830;23;20088;-85
2022/11/07 07:29:01;;;;;;;8.70;1.70;;;;;;;;;;6172120;23;20023;-86
2022/11/07 07:31:32;;;;;;;3.97;1.60;;;;;;;;;;6171681;23;20001;-86
2022/11/07 07:33:58;;;;;;;3.58;1.63;;;;;;;;;;6171981;23;20266;-86
2022/11/07 07:36:25;;;;;;;2.50;2.00;;;;;;;;;;6172011;23;20010;-86
2022/11/07 07:38:51;;;;;;;4.43;1.48;;;;;;;;;;6171559;23;20005;-86
2022/11/07 07:41:18;;;;;;;5.43;1.50;;;;;;;;;;6169846;23;20275;-85
2022/11/07 07:43:45;;;;;;;6.25;1.73;;;;;;;;;;6171787;23;20009;-86
2022/11/07 07:46:14;;;;;;;4.97;1.42;;;;;;;;;;6171000;23;20016;-85
2022/11/07 07:48:40;;;;;;;2.90;1.40;;;;;;;;;;6171511;23;20012;-85
2022/11/07 07:51:06;;;;;;;5.40;1.17;;;;;;;;;;6171213;23;20008;-85
2022/11/07 07:53:32;;;;;;;1.42;0.90;;;;;;;;;;6169709;23;20005;-85
2022/11/07 07:56:01;;;;;;;2.03;1.30;;;;;;;;;;6171496;23;20066;-85
2022/11/07 07:58:28;;;;;;;1.65;1.13;;;;;;;;;;6171228;23;20005;-85
2022/11/07 08:00:58;;;;;;;3.28;0.93;;;;;;;;;;6170803;23;20013;-86
2022/11/07 08:03:24;;;;;;;2.97;1.10;;;;;;;;;;6168985;23;20009;-85
2022/11/07 08:05:54;;;;;;;4.88;1.70;;;;;;;;;;6171037;23;20013;-86
2022/11/07 08:08:21;;;;;;;2.60;1.10;;;;;;;;;;6170988;23;20032;-85
2022/11/07 08:10:53;;;;;;;2.92;1.10;;;;;;;;;;6169100;23;20557;-85
2022/11/07 08:13:22;;;;;;;1.65;0.80;;;;;;;;;;6171121;23;20017;-85
2022/11/07 08:15:49;;;;;;;2.55;0.98;;;;;;;;;;6170956;23;20017;-86
2022/11/07 08:18:15;;;;;;;1.45;0.70;;;;;;;;;;6170680;23;20009;-85
2022/11/07 08:20:42;;;;;;;2.92;0.93;;;;;;;;;;6168928;23;20352;-86
2022/11/07 08:23:09;;;;;;;2.70;0.90;;;;;;;;;;6171362;23;20451;-85
2022/11/07 08:25:35;;;;;;;1.75;0.70;;;;;;;;;;6171443;23;20003;-86
2022/11/07 08:28:02;;;;;;;2.53;1.00;;;;;;;;;;6170728;23;20432;-86
2022/11/07 08:30:30;;;;;;;10.50;1.02;;;;;;;;;;6170713;23;20423;-86
2022/11/07 08:32:58;;;;;;;9.45;1.15;;;;;;;;;;6165219;23;20080;-86
2022/11/07 08:35:24;;;;;;;3.63;1.63;;;;;;;;;;6169741;23;20341;-86
2022/11/07 08:37:54;;;;;;;2.55;0.90;;;;;;;;;;6171373;23;20027;-86
2022/11/07 08:40:20;;;;;;;2.33;0.98;;;;;;;;;;6168481;23;20507;-85
2022/11/07 08:42:46;;;;;;;2.08;0.85;;;;;;;;;;6171295;23;20024;-86
2022/11/07 08:45:13;;;;;;;7.68;1.20;;;;;;;;;;6170601;23;20104;-86
2022/11/07 08:47:39;;;;;;;3.15;1.02;;;;;;;;;;6170862;23;20059;-86
2022/11/07 08:50:05;;;;;;;4.65;1.30;;;;;;;;;;6170732;23;20463;-86
2022/11/07 08:52:31;;;;;;;4.65;1.00;;;;;;;;;;6170673;23;20377;-85
2022/11/07 08:54:58;;;;;;;4.25;1.00;;;;;;;;;;6169199;23;20062;-86
2022/11/07 08:57:24;;;;;;;2.95;0.90;;;;;;;;;;6170266;23;20044;-85
2022/11/07 08:59:50;;;;;;;3.47;1.05;;;;;;;;;;6170449;23;20096;-85
2022/11/07 09:02:16;;;;;;;2.97;0.88;;;;;;;;;;6170666;23;20001;-85
2022/11/07 09:04:42;;;;;;;3.70;1.00;;;;;;;;;;6170982;23;20279;-85
2022/11/07 09:07:09;;;;;;;2.53;0.70;;;;;;;;;;6169696;23;20076;-85
2022/11/07 09:09:35;;;;;;;4.53;0.90;;;;;;;;;;6169229;23;20107;-85
2022/11/07 09:12:01;;;;;;;2.00;0.90;;;;;;;;;;6170894;23;20052;-85
2022/11/07 09:14:27;;;;;;;5.20;0.90;;;;;;;;;;6170080;23;20079;-83
2022/11/07 09:16:54;;;;;;;6.45;0.88;;;;;;;;;;6168051;23;20009;-83
2022/11/07 09:19:20;;;;;;;2.00;0.88;;;;;;;;;;6170561;23;20009;-84
2022/11/07 09:21:47;;;;;;;4.35;1.10;;;;;;;;;;6171097;23;20034;-83
2022/11/07 09:24:13;;;;;;;4.05;1.30;;;;;;;;;;6170423;23;20099;-82
2022/11/07 09:26:39;;;;;;;3.13;0.80;;;;;;;;;;6170571;23;20387;-82
2022/11/07 09:29:06;;;;;;;1.42;0.90;;;;;;;;;;6170081;23;20176;-83
2022/11/07 09:31:32;;;;;;;2.35;0.95;;;;;;;;;;6168205;23;20005;-84
2022/11/07 09:33:58;;;;;;;3.72;0.93;;;;;;;;;;6172604;23;20005;-83
2022/11/07 09:36:24;;;;;;;2.35;0.82;;;;;;;;;;6166036;23;20469;-83
2022/11/07 09:38:51;;;;;;;2.72;0.93;;;;;;;;;;6168932;23;20045;-84
2022/11/07 09:41:20;;;;;;;1.52;0.85;;;;;;;;;;6170614;23;20009;-83
2022/11/07 09:44:05;;;;;;;1.63;0.73;;;;;;;;;;6170297;23;20396;-83
2022/11/07 09:46:50;;;;;;;1.60;0.90;;;;;;;;;;6168334;23;20116;-83
2022/11/07 09:49:16;;;;;;;2.72;0.80;;;;;;;;;;6169481;23;20013;-84
2022/11/07 09:51:43;;;;;;;5.22;1.00;;;;;;;;;;6170283;23;20013;-83
2022/11/07 09:54:12;;;;;;;3.38;1.25;;;;;;;;;;6170474;23;20470;-84
2022/11/07 09:56:40;;;;;;;2.80;0.82;;;;;;;;;;6169257;23;20001;-84
2022/11/07 09:59:08;;;;;;;2.75;0.77;;;;;;;;;;6170018;23;20104;-84
2022/11/07 10:01:34;;;;;;;4.07;1.10;;;;;;;;;;6168115;23;20016;-85
2022/11/07 10:04:00;;;;;;;69.90;8.02;;;;;;;;;;6169998;23;20013;-85
2022/11/07 10:06:32;;;;;;;28.05;4.70;;;;;;;;;;6170476;23;19997;-85
2022/11/07 10:09:01;;;;;;;15.25;2.25;;;;;;;;;;6170480;23;20041;-85
2022/11/07 10:11:36;;;;;;;3.53;1.02;;;;;;;;;;6169864;23;20080;-86
2022/11/07 10:14:10;;;;;;;5.25;1.05;;;;;;;;;;6172187;23;20009;-85
2022/11/07 10:16:48;;;;;;;2.72;1.00;;;;;;;;;;6171533;23;20001;-86
2022/11/07 10:19:30;;;;;;;3.22;1.13;;;;;;;;;;6169947;23;20063;-86
2022/11/07 10:22:02;;;;;;;6.50;2.15;;;;;;;;;;6171970;23;20009;-85
2022/11/07 10:24:41;;;;;;;8.23;1.75;;;;;;;;;;6170612;23;20031;-86
2022/11/07 10:27:11;;;;;;;3.92;1.38;;;;;;;;;;6171794;23;20005;-84
2022/11/07 10:29:42;;;;;;;6.15;1.85;;;;;;;;;;6170040;23;20021;-84
2022/11/07 10:32:08;;;;;;;;;;;;;;;;;;6169677;23;20005;-85
2022/11/07 10:34:42;;;;;;;4.18;0.80;;;;;;;;;;6171356;23;19931;-85
2022/11/07 10:37:11;;;;;;;2.45;1.05;;;;;;;;;;6171651;23;20067;-85
2022/11/07 10:39:38;;;;;;;4.50;1.48;;;;;;;;;;6170553;23;20007;-86
2022/11/07 10:42:06;;;;;;;6.03;1.10;;;;;;;;;;6173940;23;20040;-85
2022/11/07 10:44:33;;;;;;;3.63;1.15;;;;;;;;;;6169973;23;20257;-85
2022/11/07 10:47:02;;;;;;;3.17;0.95;;;;;;;;;;6172247;23;20008;-85
2022/11/07 10:49:28;;;;;;;3.63;1.10;;;;;;;;;;6171035;23;20016;-85
2022/11/07 10:51:55;;;;;;;2.83;1.05;;;;;;;;;;6171773;23;20036;-84
2022/11/07 11:05:54;;;;;;;1.73;0.90;;;;;;;;;;6157655;23;20095;-75
2022/11/07 11:08:21;;;;;;;4.22;0.90;;;;;;;;;;6174001;23;20005;-75
2022/11/07 11:10:48;;;;;;;3.35;1.17;;;;;;;;;;6148186;23;20092;-76
2022/11/07 11:13:27;;;;;;;2.10;1.08;;;;;;;;;;6174319;23;20005;-75
2022/11/07 11:15:54;;;;;;;4.63;1.00;;;;;;;;;;6174539;23;20045;-75
2022/11/07 11:18:20;;;;;;;1.00;0.80;;;;;;;;;;6172781;23;20511;-76
2022/11/07 11:21:13;;;;;;;3.70;1.17;;;;;;;;;;6174566;23;20001;-76
2022/11/07 11:23:42;;;;;;;2.40;0.90;;;;;;;;;;6145174;23;20159;-77
2022/11/07 11:26:15;;;;;;;2.13;0.95;;;;;;;;;;6146746;23;20008;-77
2022/11/07 11:28:42;;;;;;;3.15;0.80;;;;;;;;;;6174986;23;20028;-77
2022/11/07 11:33:47;;;;;;;3.33;1.10;;;;;;;;;;6026624;23;20341;-78
2022/11/07 11:36:18;;;;;;;3.20;0.88;;;;;;;;;;6203570;23;20529;-77
2022/11/07 11:38:54;;;;;;;3.30;0.82;;;;;;;;;;6204508;23;20324;-77
2022/11/07 11:41:20;;;;;;;2.08;0.90;;;;;;;;;;6205327;23;19996;-76
2022/11/07 11:43:50;;;;;;;2.47;0.90;;;;;;;;;;6204932;23;20589;-79
2022/11/07 11:46:37;;;;;;;1.33;0.75;;;;;;;;;;6202769;23;20004;-77
2022/11/07 11:49:30;;;;;;;2.55;0.70;;;;;;;;;;6204374;23;20348;-76
2022/11/07 11:52:00;;;;;;;2.17;0.75;;;;;;;;;;6174647;23;20036;-78
2022/11/07 11:54:26;;;;;;;3.30;0.90;;;;;;;;;;6204644;23;20001;-78
2022/11/07 11:56:54;;;;;;;3.30;0.88;;;;;;;;;;6204663;23;20477;-77
2022/11/07 11:59:33;;;;;;;1.67;0.85;;;;;;;;;;6202470;23;20000;-78
2022/11/07 12:01:59;;;;;;;2.78;0.80;;;;;;;;;;6204241;23;20570;-78
2022/11/07 12:04:31;;;;;;;3.55;0.82;;;;;;;;;;6203923;23;20000;-77
2022/11/07 12:07:02;;;;;;;6.05;1.08;;;;;;;;;;6204143;23;20076;-77
2022/11/07 12:09:34;;;;;;;10.57;1.77;;;;;;;;;;6202225;23;20069;-77
2022/11/07 12:12:01;;;;;;;4.47;0.95;;;;;;;;;;6203562;23;19996;-76
2022/11/07 12:14:37;;;;;;;2.00;0.90;;;;;;;;;;6204115;23;20031;-80
2022/11/07 12:17:03;;;;;;;3.13;0.80;;;;;;;;;;6202657;23;19997;-71
2022/11/07 12:19:33;;;;;;;5.95;1.10;;;;;;;;;;6203843;23;20005;-75
2022/11/07 12:21:59;;;;;;;4.60;1.63;;;;;;;;;;6204045;23;20034;-75
2022/11/07 12:24:38;;;;;;;49.78;6.72;;;;;;;;;;6203849;23;20103;-79
2022/11/07 12:27:10;;;;;;;4.95;1.35;;;;;;;;;;6203621;23;20039;-80
2022/11/07 12:29:55;;;;;;;11.55;2.20;;;;;;;;;;6203543;23;20363;-82
2022/11/07 12:32:34;;;;;;;8.38;1.10;;;;;;;;;;6204244;23;20063;-81
2022/11/07 12:35:06;;;;;;;3.80;1.67;;;;;;;;;;6203794;23;20016;-82
2022/11/07 12:37:35;;;;;;;4.22;0.95;;;;;;;;;;6200894;23;19996;-82
2022/11/07 12:40:10;;;;;;;3.55;0.85;;;;;;;;;;6203809;23;20008;-81
2022/11/07 12:42:55;;;;;;;4.32;1.02;;;;;;;;;;6201032;23;20004;-81
2022/11/07 12:45:30;;;;;;;3.13;1.00;;;;;;;;;;6201596;23;20001;-81
2022/11/07 12:48:07;;;;;;;3.05;1.40;;;;;;;;;;6199207;23;20005;-81
2022/11/07 12:50:39;;;;;;;4.90;1.85;;;;;;;;;;6200833;23;20043;-81
2022/11/07 12:53:16;;;;;;;7.85;2.28;;;;;;;;;;6200955;23;20032;-81
2022/11/07 12:55:56;;;;;;;5.18;2.30;;;;;;;;;;6200319;23;20091;-80
2022/11/07 12:58:28;;;;;;;7.70;2.15;;;;;;;;;;6198432;23;20035;-82
2022/11/07 13:00:56;;;;;;;8.98;2.22;;;;;;;;;;6190131;23;20121;-80
2022/11/07 13:03:34;;;;;;;8.07;1.88;;;;;;;;;;6169285;23;20001;-81
2022/11/07 13:06:06;;;;;;;6.18;1.50;;;;;;;;;;6170539;23;20340;-80
2022/11/07 13:08:38;;;;;;;4.63;1.55;;;;;;;;;;6196239;23;20008;-79
2022/11/07 13:11:10;;;;;;;5.57;1.63;;;;;;;;;;6193648;23;20020;-79
2022/11/07 13:13:59;;;;;;;4.38;1.23;;;;;;;;;;6195167;23;20009;-80
2022/11/07 13:16:27;;;;;;;5.03;1.38;;;;;;;;;;6196192;23;20000;-81
2022/11/07 13:18:53;;;;;;;1.92;1.10;;;;;;;;;;6195490;23;20015;-79
2022/11/07 13:21:20;;;;;;;2.35;1.05;;;;;;;;;;6170132;23;20378;-80
2022/11/07 13:23:46;;;;;;;2.70;1.05;;;;;;;;;;6195834;23;20059;-80
2022/11/07 13:26:13;;;;;;;2.13;0.80;;;;;;;;;;6195060;23;20000;-79
2022/11/07 13:28:44;;;;;;;5.22;1.42;;;;;;;;;;6196389;23;20453;-80
2022/11/07 13:31:49;;;;;;;6.38;1.23;;;;;;;;;;6194389;23;20711;-80
2022/11/07 13:34:18;;;;;;;2.08;0.90;;;;;;;;;;6050246;23;20395;-80
2022/11/07 13:36:45;;;;;;;1.15;0.68;;;;;;;;;;6074360;23;20114;-79
2022/11/07 13:39:12;;;;;;;1.90;0.80;;;;;;;;;;6133736;23;20253;-80
2022/11/07 13:41:39;;;;;;;3.17;1.00;;;;;;;;;;6196930;23;20370;-80
2022/11/07 13:44:07;;;;;;;2.58;1.17;;;;;;;;;;6196871;23;20470;-80
2022/11/07 13:46:41;;;;;;;2.47;0.95;;;;;;;;;;6172151;23;20004;-80
2022/11/07 13:49:21;;;;;;;3.30;0.90;;;;;;;;;;6197759;23;20467;-80
2022/11/07 13:51:49;;;;;;;3.10;1.00;;;;;;;;;;6197394;23;20428;-79
2022/11/07 13:54:33;;;;;;;5.70;1.00;;;;;;;;;;6198279;23;20610;-79
2022/11/07 13:57:26;;;;;;;5.10;1.10;;;;;;;;;;6199311;23;20000;-80
2022/11/07 13:59:54;;;;;;;5.10;0.98;;;;;;;;;;6195840;23;20028;-80
2022/11/07 14:02:24;;;;;;;4.03;0.82;;;;;;;;;;6198490;23;20599;-80
2022/11/07 14:04:52;;;;;;;1.92;0.80;;;;;;;;;;6198849;23;20079;-75
2022/11/07 14:07:18;;;;;;;2.63;0.80;;;;;;;;;;6169790;23;20080;-75
2022/11/07 14:09:45;;;;;;;3.33;0.90;;;;;;;;;;6197718;23;20008;-75
2022/11/07 14:12:17;;;;;;;3.28;1.13;;;;;;;;;;6197552;23;20000;-75
2022/11/07 14:14:44;;;;;;;2.67;0.73;;;;;;;;;;6197523;23;20013;-75
2022/11/07 14:17:14;;;;;;;4.22;1.10;;;;;;;;;;6197907;23;20412;-76
2022/11/07 14:19:40;;;;;;;3.00;0.80;;;;;;;;;;6197646;23;20005;-74
2022/11/07 14:22:20;;;;;;;2.28;0.80;;;;;;;;;;6195721;23;20535;-74
2022/11/07 14:24:50;;;;;;;1.48;0.60;;;;;;;;;;6197740;23;20009;-75
2022/11/07 14:27:16;;;;;;;3.63;1.00;;;;;;;;;;6197199;23;20005;-74
2022/11/07 14:29:56;;;;;;;2.95;0.95;;;;;;;;;;6197041;23;20019;-75
2022/11/07 14:32:23;;;;;;;4.00;0.80;;;;;;;;;;6195290;23;20047;-74
2022/11/07 14:34:50;;;;;;;2.65;0.68;;;;;;;;;;6197374;23;20506;-74
2022/11/07 14:37:17;;;;;;;2.80;0.80;;;;;;;;;;6198251;23;20476;-75
2022/11/07 14:39:44;;;;;;;3.55;0.90;;;;;;;;;;6170592;23;20088;-74
2022/11/07 14:42:13;;;;;;;4.32;1.00;;;;;;;;;;6194909;23;19996;-75
2022/11/07 14:44:41;;;;;;;3.47;0.80;;;;;;;;;;6197800;23;20004;-76
2022/11/07 14:47:09;;;;;;;2.72;0.70;;;;;;;;;;6197791;23;20000;-75
2022/11/07 14:49:43;;;;;;;7.65;1.30;;;;;;;;;;6197324;23;20016;-75
2022/11/07 14:52:17;;;;;;;3.28;1.00;;;;;;;;;;6195508;23;20004;-75
2022/11/07 14:54:44;;;;;;;2.45;1.00;;;;;;;;;;6197364;23;20017;-75
2022/11/07 14:57:11;;;;;;;3.53;0.70;;;;;;;;;;6195576;23;20004;-75
2022/11/07 14:59:37;;;;;;;3.50;1.00;;;;;;;;;;6197174;23;20062;-75
2022/11/07 15:02:19;;;;;;;3.70;1.15;;;;;;;;;;6196302;23;20000;-75
2022/11/07 15:04:47;;;;;;;2.80;0.73;;;;;;;;;;6195590;23;20388;-74
2022/11/07 15:07:32;;;;;;;3.05;0.90;;;;;;;;;;6197279;23;20000;-75
2022/11/07 15:09:59;;;;;;;4.70;0.98;;;;;;;;;;6197058;23;20372;-75
2022/11/07 15:12:26;;;;;;;6.82;1.17;;;;;;;;;;6197273;23;20333;-75
2022/11/07 15:15:29;;;;;;;6.57;1.35;;;;;;;;;;6196785;23;20278;-75